logo
Search for airport 
image banner adimage banner adimage banner ad
image banner ad

MMAOC - Acocotla

Located in Atlixco, Mexico

ICAO - , IATA -

Data provided by Airmate  

General information

Coordinates: N18°51'2" W98°26'49"
Elevation is 5754 feet MSL.
Magnetic variation is 3° East
View others Airports in Puebla

Operational data

Special qualification required
Current time UTC:
Current local time:
METAR: MMPB 241940Z 09008KT 6SM SCT020 31/04 A3023 RMK 8/100 HZY TCU N
TAF: TAF MMPB 241640Z 2418/2518 16010KT 6SM HZ SCT030 TEMPO 2423/2503 4SM TSRA BKN020CB FM250400 16005KT 6SM HZ SCT020 BKN100 FM250900 16005KT 5SM HZ SCT015 BKN200 FM251600 16005KT 6SM HZ SCT020 SCT200
View NOTAMs / SUP AIP / TFR affecting this airport [VIEW]
Communications frequencies: [VIEW]

Runways:

RWY identifierQFULength (ft)Width (ft)SurfaceLDA (ft)
0115°358637ASPH
19195°358637ASPH

Airport contact information

Address: Atlixco Mexico

Satellite view of MMAOC